Time;durP1;ratioP1;P1;durP2;ratioP2;P2;SDS_P1;SDS_P2;PMS_P1;PMS_P2;Temp;Humidity;BMP_temperature;BMP_pressure;BME280_temperature;BME280_humidity;BME280_pressure;Samples;Min_cycle;Max_cycle;Signal;HPM_P1;HPM_P2
2021/12/01 00:01:28;;;;;;;11.55;8.82;;;;;;;8.51;100.00;100073.75;5071507;28;20540;-53
2021/12/01 00:03:53;;;;;;;11.65;8.52;;;;;;;8.51;100.00;100068.63;5072543;28;20114;-54
2021/12/01 00:06:18;;;;;;;12.85;9.00;;;;;;;8.52;100.00;100062.66;5072651;28;20034;-53
2021/12/01 00:08:44;;;;;;;11.43;8.70;;;;;;;8.49;100.00;100052.28;5071568;28;20088;-52
2021/12/01 00:11:09;;;;;;;11.18;8.82;;;;;;;8.49;100.00;100047.16;5072413;28;20029;-54
2021/12/01 00:13:34;;;;;;;9.65;7.30;;;;;;;8.50;100.00;100041.19;5072053;28;20052;-53
2021/12/01 00:16:01;;;;;;;10.70;7.93;;;;;;;8.51;100.00;100024.97;5071898;28;20024;-54
2021/12/01 00:18:26;;;;;;;9.55;7.30;;;;;;;8.50;100.00;100012.94;5073311;28;20027;-53
2021/12/01 00:20:51;;;;;;;11.55;7.35;;;;;;;8.52;100.00;100016.44;5076000;28;20037;-53
2021/12/01 00:23:17;;;;;;;9.15;6.72;;;;;;;8.50;100.00;100002.66;5075545;28;20039;-53
2021/12/01 00:25:43;;;;;;;8.68;6.68;;;;;;;8.52;100.00;99995.88;5075967;28;20064;-54
2021/12/01 00:28:09;;;;;;;9.13;7.00;;;;;;;8.52;100.00;99980.47;5076443;28;20024;-53
2021/12/01 00:30:35;;;;;;;9.70;7.40;;;;;;;8.51;100.00;99978.72;5075650;28;20020;-52
2021/12/01 00:33:00;;;;;;;8.50;6.50;;;;;;;8.50;100.00;99964.16;5076491;28;20430;-52
2021/12/01 00:35:27;;;;;;;8.88;6.10;;;;;;;8.50;100.00;99965.88;5076088;28;20024;-53
2021/12/01 00:37:52;;;;;;;10.13;6.40;;;;;;;8.51;100.00;99955.63;5075611;28;20025;-54
2021/12/01 00:40:18;;;;;;;9.05;6.25;;;;;;;8.51;100.00;99947.91;5076388;28;20487;-53
2021/12/01 00:42:44;;;;;;;9.98;6.28;;;;;;;8.49;100.00;99944.44;5075850;28;20066;-53
2021/12/01 00:45:17;;;;;;;7.40;5.57;;;;;;;8.48;100.00;99937.59;5075292;28;20028;-54
2021/12/01 00:47:45;;;;;;;9.63;5.80;;;;;;;8.48;100.00;99932.44;5075935;28;20036;-53
2021/12/01 00:50:13;;;;;;;7.70;5.18;;;;;;;8.48;100.00;99929.88;5076136;28;20380;-54
2021/12/01 00:52:39;;;;;;;14.15;5.80;;;;;;;8.48;100.00;99926.44;5074945;28;20025;-53
2021/12/01 00:55:05;;;;;;;7.95;5.28;;;;;;;8.47;100.00;99929.81;5075717;28;20021;-54
2021/12/01 00:57:31;;;;;;;9.50;5.35;;;;;;;8.48;100.00;99922.19;5075610;28;20020;-52
2021/12/01 00:59:56;;;;;;;7.28;4.78;;;;;;;8.48;100.00;99923.84;5074928;28;20027;-54
2021/12/01 01:02:22;;;;;;;7.95;5.05;;;;;;;8.46;100.00;99921.25;5075973;28;20147;-53
2021/12/01 01:04:48;;;;;;;7.45;4.70;;;;;;;8.46;100.00;99911.00;5074833;28;20032;-53
2021/12/01 01:07:13;;;;;;;7.40;5.22;;;;;;;8.44;100.00;99899.78;5075760;28;20388;-53
2021/12/01 01:09:40;;;;;;;8.10;5.20;;;;;;;8.45;100.00;99898.94;5075582;28;20082;-54
2021/12/01 01:17:42;;;;;;;7.53;5.50;;;;;;;8.41;100.00;99877.47;5075754;28;20063;-54
2021/12/01 01:20:13;;;;;;;11.57;5.95;;;;;;;8.38;100.00;99879.97;5074631;28;20036;-53
2021/12/01 01:22:40;;;;;;;7.95;5.53;;;;;;;8.37;100.00;99880.78;5074906;28;20408;-51
2021/12/01 01:25:07;;;;;;;8.52;6.45;;;;;;;8.37;100.00;99867.09;5075537;28;20078;-53
2021/12/01 01:27:34;;;;;;;7.63;5.85;;;;;;;8.38;100.00;99863.72;5074327;28;20408;-54
2021/12/01 01:30:00;;;;;;;11.10;6.60;;;;;;;8.37;100.00;99872.22;5075041;28;20074;-52
2021/12/01 01:32:25;;;;;;;8.98;6.22;;;;;;;8.37;100.00;99851.69;5075157;28;20036;-54
2021/12/01 01:34:50;;;;;;;10.05;7.80;;;;;;;8.32;100.00;99863.56;5074324;28;20020;-53
2021/12/01 01:37:16;;;;;;;11.48;7.55;;;;;;;8.29;100.00;99848.97;5075260;28;20025;-53
2021/12/01 01:39:41;;;;;;;12.00;8.40;;;;;;;8.29;100.00;99835.22;5074857;28;20024;-53
2021/12/01 01:42:06;;;;;;;12.82;9.35;;;;;;;8.26;100.00;99851.44;5074284;28;20028;-53
2021/12/01 01:44:32;;;;;;;12.15;8.75;;;;;;;8.26;100.00;99842.88;5074934;28;20020;-54
2021/12/01 01:46:58;;;;;;;12.00;9.23;;;;;;;8.23;100.00;99833.41;5074367;28;20059;-53
2021/12/01 01:49:40;;;;;;;13.13;9.60;;;;;;;8.21;100.00;99838.50;5074832;28;20040;-54
2021/12/01 01:52:06;;;;;;;11.63;9.13;;;;;;;8.19;100.00;99821.34;5074591;28;20024;-53
2021/12/01 01:54:31;;;;;;;12.50;8.90;;;;;;;8.17;100.00;99829.00;5073779;28;20028;-54
2021/12/01 01:56:56;;;;;;;13.93;9.35;;;;;;;8.16;100.00;99817.00;5074733;28;20025;-53
2021/12/01 01:59:22;;;;;;;11.02;8.75;;;;;;;8.14;100.00;99823.78;5074685;28;20032;-53
2021/12/01 02:01:57;;;;;;;11.75;8.95;;;;;;;8.10;100.00;99806.59;5073485;28;20024;-53
2021/12/01 02:04:25;;;;;;;12.00;9.07;;;;;;;8.05;100.00;99803.91;5074265;28;20051;-53
2021/12/01 02:06:51;;;;;;;13.77;8.95;;;;;;;8.07;100.00;99788.56;5074220;28;20017;-53
2021/12/01 02:09:20;;;;;;;11.30;8.40;;;;;;;8.06;100.00;99787.69;5073262;28;20041;-54
2021/12/01 02:11:46;;;;;;;9.82;8.38;;;;;;;8.04;100.00;99785.91;5073606;28;20061;-54
2021/12/01 02:14:12;;;;;;;12.23;8.25;;;;;;;8.02;100.00;99767.06;5073803;28;20024;-54
2021/12/01 02:16:38;;;;;;;10.20;7.85;;;;;;;8.00;100.00;99756.75;5073060;28;20086;-54
2021/12/01 02:19:04;;;;;;;9.50;7.53;;;;;;;8.00;100.00;99743.06;5073583;28;20580;-54
2021/12/01 02:21:30;;;;;;;11.27;7.60;;;;;;;7.96;100.00;99748.97;5073841;28;20472;-54
2021/12/01 02:24:00;;;;;;;10.20;7.65;;;;;;;7.96;100.00;99751.53;5073216;28;20036;-53
2021/12/01 02:26:27;;;;;;;8.27;7.10;;;;;;;7.94;100.00;99748.94;5073561;28;20025;-54
2021/12/01 02:28:56;;;;;;;10.00;6.30;;;;;;;7.92;100.00;99735.19;5073686;28;20037;-54
2021/12/01 02:31:25;;;;;;;8.07;6.45;;;;;;;7.91;100.00;99734.34;5073088;28;20067;-53
2021/12/01 02:33:55;;;;;;;7.47;6.25;;;;;;;7.91;100.00;99721.53;5073759;28;20017;-53
2021/12/01 02:36:20;;;;;;;6.70;5.72;;;;;;;7.90;100.00;99712.09;5072824;28;20031;-54
2021/12/01 02:38:47;;;;;;;7.93;6.07;;;;;;;7.87;100.00;99701.75;5073294;28;20103;-53
2021/12/01 02:41:14;;;;;;;7.43;5.18;;;;;;;7.85;100.00;99688.03;5072486;28;20075;-55
2021/12/01 02:43:41;;;;;;;8.45;5.35;;;;;;;7.85;100.00;99682.91;5072545;28;20074;-53
2021/12/01 02:46:06;;;;;;;6.80;5.30;;;;;;;7.83;100.00;99674.28;5073691;28;20028;-54
2021/12/01 02:48:36;;;;;;;7.88;4.60;;;;;;;7.80;100.00;99676.81;5073251;28;20043;-53
2021/12/01 02:51:04;;;;;;;7.78;5.30;;;;;;;7.78;100.00;99675.88;5072905;28;20021;-54
2021/12/01 02:53:30;;;;;;;6.65;4.70;;;;;;;7.76;100.00;99664.75;5073327;28;20470;-54
2021/12/01 02:56:01;;;;;;;6.47;4.30;;;;;;;7.75;100.00;99663.00;5073373;28;20016;-54
2021/12/01 02:58:30;;;;;;;6.60;4.78;;;;;;;7.74;100.00;99657.00;5072544;28;20028;-53
2021/12/01 03:00:58;;;;;;;5.47;4.10;;;;;;;7.72;100.00;99661.25;5073637;28;20102;-55
2021/12/01 03:03:23;;;;;;;9.57;4.95;;;;;;;7.71;100.00;99638.13;5073125;28;20388;-55
2021/12/01 03:05:50;;;;;;;9.85;5.13;;;;;;;7.69;100.00;99647.47;5072513;28;20477;-54
2021/12/01 03:08:16;;;;;;;7.20;4.90;;;;;;;7.67;100.00;99644.00;5073325;28;20024;-53
2021/12/01 03:10:48;;;;;;;8.05;5.40;;;;;;;7.62;100.00;99638.78;5073439;28;20033;-55
2021/12/01 03:13:15;;;;;;;7.90;5.10;;;;;;;7.62;100.00;99643.03;5072584;28;20476;-54
2021/12/01 03:15:41;;;;;;;6.18;5.07;;;;;;;7.59;100.00;99631.00;5073150;28;20046;-54
2021/12/01 03:18:07;;;;;;;11.43;5.88;;;;;;;7.61;100.00;99631.06;5073234;28;20029;-54
2021/12/01 03:20:33;;;;;;;9.63;5.80;;;;;;;7.58;100.00;99617.34;5072029;28;20395;-54
2021/12/01 03:22:58;;;;;;;6.72;5.60;;;;;;;7.58;100.00;99622.47;5073151;28;20376;-54
2021/12/01 03:25:24;;;;;;;8.43;5.55;;;;;;;7.57;100.00;99600.22;5072284;28;20056;-54
2021/12/01 03:27:50;;;;;;;8.27;6.35;;;;;;;7.57;100.00;99599.38;5073309;28;20032;-53
2021/12/01 03:30:15;;;;;;;9.15;6.65;;;;;;;7.53;100.00;99583.03;5073013;28;20100;-53
2021/12/01 03:32:41;;;;;;;10.50;6.10;;;;;;;7.53;100.00;99582.19;5071850;28;20027;-54
2021/12/01 03:35:09;;;;;;;10.05;6.20;;;;;;;7.50;100.00;99577.88;5073155;28;20025;-54
2021/12/01 03:37:35;;;;;;;8.63;6.28;;;;;;;7.53;100.00;99566.81;5072801;28;20083;-54
2021/12/01 03:40:01;;;;;;;9.15;6.20;;;;;;;7.52;100.00;99565.91;5072332;28;20020;-54
2021/12/01 03:42:27;;;;;;;10.63;6.88;;;;;;;7.49;100.00;99553.06;5072954;28;20422;-54
2021/12/01 03:44:55;;;;;;;9.15;6.53;;;;;;;7.50;100.00;99549.66;5072848;28;20021;-55
2021/12/01 03:47:21;;;;;;;8.45;6.10;;;;;;;7.51;100.00;99553.94;5071993;28;20028;-54
2021/12/01 03:49:46;;;;;;;9.48;6.55;;;;;;;7.49;100.00;99518.84;5072386;28;20033;-53
2021/12/01 03:52:16;;;;;;;8.65;5.93;;;;;;;7.48;100.00;99541.06;5073268;28;20436;-55
2021/12/01 03:54:41;;;;;;;8.60;5.93;;;;;;;7.46;100.00;99529.91;5075732;28;20538;-54
2021/12/01 03:57:07;;;;;;;7.55;5.93;;;;;;;7.46;100.00;99519.63;5076644;28;20143;-55
2021/12/01 03:59:35;;;;;;;8.95;5.95;;;;;;;7.46;100.00;99513.66;5076369;28;20021;-54
2021/12/01 04:02:00;;;;;;;9.25;6.28;;;;;;;7.41;100.00;99509.31;5075777;28;20029;-55
2021/12/01 04:04:26;;;;;;;8.52;6.10;;;;;;;7.44;100.00;99502.50;5076279;28;20024;-54
2021/12/01 04:06:51;;;;;;;9.23;6.40;;;;;;;7.43;100.00;99477.72;5076318;28;20025;-55
2021/12/01 04:09:16;;;;;;;9.32;6.60;;;;;;;7.43;100.00;99481.13;5075610;28;20040;-54
2021/12/01 04:11:42;;;;;;;9.25;6.55;;;;;;;7.41;100.00;99482.78;5076128;28;20024;-55
2021/12/01 04:14:08;;;;;;;10.55;6.97;;;;;;;7.43;100.00;99473.44;5076504;28;20024;-55
2021/12/01 04:16:36;;;;;;;8.82;6.90;;;;;;;7.42;100.00;99458.91;5075044;28;20472;-55
2021/12/01 04:19:01;;;;;;;10.55;7.15;;;;;;;7.40;100.00;99455.47;5075907;28;20032;-55
2021/12/01 04:21:27;;;;;;;9.50;6.85;;;;;;;7.40;100.00;99458.88;5075760;28;20024;-55
2021/12/01 04:23:54;;;;;;;8.35;6.50;;;;;;;7.43;100.00;99447.81;5075085;28;20017;-55
2021/12/01 04:26:23;;;;;;;10.23;7.10;;;;;;;7.39;100.00;99452.00;5076261;28;20021;-56
2021/12/01 04:28:49;;;;;;;9.52;6.65;;;;;;;7.39;100.00;99430.66;5075123;28;20322;-54
2021/12/01 04:31:14;;;;;;;7.70;6.20;;;;;;;7.39;100.00;99430.66;5076045;28;20055;-55
2021/12/01 04:33:39;;;;;;;9.32;6.30;;;;;;;7.39;100.00;99416.13;5075708;28;20146;-53
2021/12/01 04:36:05;;;;;;;7.63;5.30;;;;;;;7.39;99.74;99411.00;5075229;28;20017;-53
2021/12/01 04:38:30;;;;;;;7.35;5.40;;;;;;;7.38;100.00;99404.13;5075850;28;20407;-55
2021/12/01 04:40:55;;;;;;;9.63;5.50;;;;;;;7.36;99.57;99381.88;5076135;28;20031;-55
2021/12/01 04:43:21;;;;;;;7.47;5.30;;;;;;;7.37;99.52;99388.75;5075132;28;20028;-55
2021/12/01 04:45:52;;;;;;;10.80;4.97;;;;;;;7.35;99.51;99342.59;5075509;28;20424;-55
2021/12/01 04:48:17;;;;;;;6.15;4.53;;;;;;;7.35;99.53;99378.47;5075515;28;20032;-55
2021/12/01 04:50:42;;;;;;;6.65;4.43;;;;;;;7.35;99.36;99372.50;5074825;28;20032;-54
2021/12/01 04:53:07;;;;;;;6.55;4.78;;;;;;;7.39;98.66;99362.31;5075914;28;20021;-55
2021/12/01 04:55:34;;;;;;;7.53;4.75;;;;;;;7.32;99.24;99357.03;5075618;28;20020;-55
2021/12/01 04:57:59;;;;;;;5.82;4.25;;;;;;;7.31;99.27;99350.16;5075048;28;20023;-55
2021/12/01 05:00:26;;;;;;;8.32;4.90;;;;;;;7.25;100.00;99349.22;5075582;28;20095;-55
2021/12/01 05:02:53;;;;;;;6.57;4.32;;;;;;;7.20;100.00;99345.72;5075587;28;20027;-54
2021/12/01 05:05:18;;;;;;;7.32;5.05;;;;;;;7.18;100.00;99347.41;5074201;28;20094;-54
2021/12/01 05:07:44;;;;;;;7.03;4.65;;;;;;;7.13;100.00;99343.00;5075403;28;20028;-55
2021/12/01 05:10:09;;;;;;;8.75;4.45;;;;;;;7.09;100.00;99339.53;5075541;28;20511;-55
2021/12/01 05:12:36;;;;;;;8.02;4.78;;;;;;;7.08;100.00;99327.56;5074541;28;20023;-54
2021/12/01 05:15:01;;;;;;;7.65;4.53;;;;;;;7.03;100.00;99331.72;5075478;28;20066;-54
2021/12/01 05:17:27;;;;;;;6.93;4.40;;;;;;;7.00;100.00;99322.28;5074862;28;20024;-55
2021/12/01 05:19:52;;;;;;;7.70;4.22;;;;;;;7.01;100.00;99323.13;5074162;28;20043;-54
2021/12/01 05:22:18;;;;;;;7.10;4.38;;;;;;;6.97;100.00;99303.44;5075198;28;20070;-54
2021/12/01 05:24:43;;;;;;;6.10;3.72;;;;;;;6.96;100.00;99317.94;5074887;28;20388;-54
2021/12/01 05:27:08;;;;;;;6.88;4.30;;;;;;;6.96;100.00;99296.56;5074047;28;20064;-55
2021/12/01 05:29:34;;;;;;;7.75;4.38;;;;;;;6.91;100.00;99302.47;5074707;28;20101;-55
2021/12/01 05:31:59;;;;;;;4.85;3.63;;;;;;;6.92;100.00;99301.66;5074569;28;20031;-54
2021/12/01 05:34:25;;;;;;;6.15;3.72;;;;;;;6.89;100.00;99305.84;5074761;28;20029;-54
2021/12/01 05:36:51;;;;;;;4.88;3.60;;;;;;;6.87;100.00;99294.72;5075102;28;20100;-57
2021/12/01 05:39:17;;;;;;;4.90;3.30;;;;;;;6.86;100.00;99306.66;5074320;28;20446;-53
2021/12/01 05:41:43;;;;;;;5.75;3.45;;;;;;;6.83;100.00;99270.75;5074704;28;20043;-55
2021/12/01 05:44:08;;;;;;;4.70;3.30;;;;;;;6.80;100.00;99275.78;5074771;28;20028;-54
2021/12/01 05:46:36;;;;;;;4.45;3.05;;;;;;;6.82;100.00;99268.16;5073495;28;20029;-53
2021/12/01 05:49:02;;;;;;;;;;;;;;;6.85;100.00;99269.06;5074990;28;20039;-54
2021/12/01 05:51:27;;;;;;;5.22;2.92;;;;;;;6.76;100.00;99256.09;5074369;28;19919;-54
2021/12/01 05:53:56;;;;;;;4.18;2.72;;;;;;;6.74;100.00;99268.00;5073735;28;20017;-55
2021/12/01 05:56:21;;;;;;;4.53;3.25;;;;;;;6.72;100.00;99261.97;5074512;28;20033;-55
2021/12/01 05:58:47;;;;;;;5.30;2.70;;;;;;;6.70;100.00;99233.81;5074256;28;20027;-55
2021/12/01 06:01:12;;;;;;;4.72;3.10;;;;;;;6.72;100.00;99233.81;5073435;28;20020;-55
2021/12/01 06:03:39;;;;;;;4.30;2.60;;;;;;;6.72;100.00;99236.38;5073875;28;20027;-54
2021/12/01 06:06:04;;;;;;;3.83;2.40;;;;;;;6.72;100.00;99232.09;5074327;28;20024;-53
2021/12/01 06:08:30;;;;;;;3.13;2.38;;;;;;;6.72;100.00;99216.75;5073023;28;20036;-55
2021/12/01 06:10:55;;;;;;;4.72;2.67;;;;;;;6.73;100.00;99212.50;5074326;28;20029;-53
2021/12/01 06:13:21;;;;;;;4.00;2.40;;;;;;;6.72;100.00;99203.94;5074531;28;20017;-53
2021/12/01 06:15:49;;;;;;;3.05;2.17;;;;;;;6.72;100.00;99205.66;5073187;28;20028;-53
2021/12/01 06:18:15;;;;;;;6.00;2.38;;;;;;;6.71;100.00;99198.81;5074118;28;20395;-54
2021/12/01 06:20:40;;;;;;;4.50;2.70;;;;;;;6.73;100.00;99181.78;5073767;28;20128;-54
2021/12/01 06:23:05;;;;;;;3.33;2.60;;;;;;;6.74;100.00;99176.69;5073681;28;20048;-54
2021/12/01 06:25:31;;;;;;;3.95;2.83;;;;;;;6.72;100.00;99180.06;5073947;28;20372;-54
2021/12/01 06:27:57;;;;;;;3.28;2.38;;;;;;;6.73;100.00;99174.97;5074097;28;20121;-53
2021/12/01 06:30:26;;;;;;;5.32;2.75;;;;;;;6.74;100.00;99180.97;5072910;28;20025;-53
2021/12/01 06:32:53;;;;;;;4.30;2.97;;;;;;;6.72;100.00;99180.06;5073779;28;20088;-54
2021/12/01 06:35:19;;;;;;;4.10;2.95;;;;;;;6.74;100.00;99165.59;5073209;28;20028;-53
2021/12/01 06:37:45;;;;;;;5.15;2.80;;;;;;;6.73;100.00;99166.44;5073360;28;20039;-53
2021/12/01 06:40:12;;;;;;;4.45;3.05;;;;;;;6.78;100.00;99166.50;5073559;28;20020;-53
2021/12/01 06:42:37;;;;;;;7.43;3.38;;;;;;;6.78;100.00;99158.81;5072533;28;20103;-54
2021/12/01 06:45:05;;;;;;;4.13;3.33;;;;;;;6.77;100.00;99163.06;5073342;28;20095;-53
2021/12/01 06:47:30;;;;;;;;;;;;;;;6.86;100.00;99150.44;5073437;28;20431;-53
2021/12/01 06:49:55;;;;;;;4.70;3.30;;;;;;;6.83;100.00;99140.16;5072621;28;20371;-54
2021/12/01 06:52:21;;;;;;;4.07;3.22;;;;;;;6.84;100.00;99138.44;5073212;28;20021;-55
2021/12/01 06:54:46;;;;;;;4.40;3.40;;;;;;;6.85;100.00;99135.03;5073019;28;20021;-54
2021/12/01 06:57:11;;;;;;;3.72;3.03;;;;;;;6.88;100.00;99140.22;5072402;28;20111;-53
2021/12/01 06:59:37;;;;;;;5.43;3.60;;;;;;;6.87;100.00;99139.34;5072686;28;20568;-53
2021/12/01 07:02:02;;;;;;;4.22;3.47;;;;;;;6.87;100.00;99129.13;5073213;28;20373;-54
2021/12/01 07:04:29;;;;;;;5.35;3.83;;;;;;;6.88;100.00;99128.28;5072237;28;20352;-54
2021/12/01 07:06:54;;;;;;;6.03;3.70;;;;;;;6.88;100.00;99125.72;5073170;28;20035;-53
2021/12/01 07:09:23;;;;;;;5.00;3.90;;;;;;;6.89;100.00;99132.56;5073102;28;20455;-54
2021/12/01 07:11:48;;;;;;;5.68;4.28;;;;;;;6.89;100.00;99129.13;5072105;28;20020;-55
2021/12/01 07:14:14;;;;;;;6.00;4.22;;;;;;;6.91;100.00;99124.91;5072918;28;20177;-54
2021/12/01 07:16:39;;;;;;;6.30;4.47;;;;;;;6.90;100.00;99121.47;5072840;28;20108;-54
2021/12/01 07:19:06;;;;;;;5.70;4.18;;;;;;;6.93;100.00;99120.66;5072012;28;20111;-53
2021/12/01 07:21:31;;;;;;;5.80;4.63;;;;;;;6.97;100.00;99121.56;5072612;28;20031;-53
2021/12/01 07:23:56;;;;;;;5.97;4.60;;;;;;;6.97;100.00;99119.00;5072805;28;20107;-54
2021/12/01 07:26:21;;;;;;;6.55;4.40;;;;;;;7.00;100.00;99129.34;5072093;28;20086;-55
2021/12/01 07:28:47;;;;;;;8.57;5.28;;;;;;;6.99;100.00;99122.47;5072143;28;20031;-54
2021/12/01 07:31:13;;;;;;;7.30;5.20;;;;;;;7.03;100.00;99114.84;5073160;28;20028;-53
2021/12/01 07:33:38;;;;;;;6.28;4.53;;;;;;;7.04;100.00;99126.81;5071972;28;20027;-54
2021/12/01 07:36:04;;;;;;;6.43;4.78;;;;;;;7.03;100.00;99111.44;5072865;28;20325;-54
2021/12/01 07:38:30;;;;;;;6.85;5.13;;;;;;;7.04;100.00;99118.28;5071804;28;20059;-54
2021/12/01 07:40:55;;;;;;;6.85;4.80;;;;;;;7.05;100.00;99112.31;5072804;28;20056;-54
2021/12/01 07:43:21;;;;;;;6.80;5.00;;;;;;;7.07;100.00;99108.06;5072635;28;20529;-53
2021/12/01 07:45:47;;;;;;;7.28;4.90;;;;;;;7.11;100.00;99106.44;5071842;28;20028;-53
2021/12/01 07:48:12;;;;;;;7.25;5.25;;;;;;;7.12;100.00;99083.41;5072782;28;20025;-55
2021/12/01 07:50:38;;;;;;;7.15;5.10;;;;;;;7.18;100.00;99098.88;5072223;28;20024;-54
2021/12/01 07:53:04;;;;;;;7.30;4.80;;;;;;;7.20;100.00;99091.19;5071899;28;20582;-54
2021/12/01 07:55:29;;;;;;;6.60;4.88;;;;;;;7.20;100.00;99086.06;5072357;28;20072;-55
2021/12/01 07:57:54;;;;;;;7.72;4.97;;;;;;;7.24;100.00;99073.34;5072548;28;20037;-54
2021/12/01 08:00:20;;;;;;;6.30;4.45;;;;;;;7.25;100.00;99080.16;5072058;28;20067;-55
2021/12/01 08:02:45;;;;;;;7.55;4.45;;;;;;;7.32;100.00;99090.50;5072334;28;20020;-54
2021/12/01 08:05:11;;;;;;;6.03;4.20;;;;;;;7.32;100.00;99087.94;5072419;28;20480;-55
2021/12/01 08:07:38;;;;;;;5.57;4.30;;;;;;;7.34;100.00;99074.31;5071407;28;20025;-54
2021/12/01 08:10:08;;;;;;;5.40;4.50;;;;;;;7.35;100.00;99070.91;5072296;28;20533;-55
2021/12/01 08:12:34;;;;;;;6.40;5.03;;;;;;;7.35;100.00;99070.06;5072189;28;20027;-55
2021/12/01 08:15:03;;;;;;;5.45;4.40;;;;;;;7.36;100.00;99072.66;5071757;28;20025;-54
2021/12/01 08:17:29;;;;;;;6.60;4.72;;;;;;;7.36;100.00;99072.66;5071964;28;20032;-54
2021/12/01 08:19:57;;;;;;;7.40;4.55;;;;;;;7.39;100.00;99052.16;5072185;28;20052;-54
2021/12/01 08:22:22;;;;;;;;;;;;;;;7.43;100.00;99063.34;5072063;28;20040;-54
2021/12/01 08:24:48;;;;;;;6.43;4.57;;;;;;;7.39;100.00;99066.69;5072435;28;20387;-53
2021/12/01 08:27:15;;;;;;;6.20;4.93;;;;;;;7.39;100.00;99061.56;5072225;28;20271;-54
2021/12/01 08:29:40;;;;;;;7.63;5.63;;;;;;;7.39;100.00;99061.56;5071411;28;20078;-53
2021/12/01 08:32:06;;;;;;;7.55;5.82;;;;;;;7.39;100.00;99059.88;5072513;28;20020;-53
2021/12/01 08:34:31;;;;;;;7.45;5.50;;;;;;;7.40;100.00;99055.63;5071914;28;20404;-52
2021/12/01 08:36:57;;;;;;;8.48;5.65;;;;;;;7.42;100.00;99041.09;5071378;28;20089;-54
2021/12/01 08:39:22;;;;;;;7.65;5.88;;;;;;;7.43;100.00;99053.09;5072927;28;20036;-53
2021/12/01 08:41:47;;;;;;;10.57;6.10;;;;;;;7.46;100.00;99054.81;5074776;28;20017;-54
2021/12/01 08:44:13;;;;;;;8.40;6.25;;;;;;;7.47;100.00;99044.59;5075570;28;20090;-53
2021/12/01 08:46:38;;;;;;;7.10;5.78;;;;;;;7.51;100.00;99038.66;5075508;28;20491;-54
2021/12/01 08:49:03;;;;;;;7.30;5.10;;;;;;;7.54;100.00;99038.72;5074919;28;20039;-53
2021/12/01 08:51:30;;;;;;;8.20;5.82;;;;;;;7.57;100.00;99045.56;5075530;28;20028;-53
2021/12/01 08:53:56;;;;;;;8.00;5.50;;;;;;;7.62;100.00;99040.47;5075618;28;20437;-54
2021/12/01 08:56:21;;;;;;;6.30;4.95;;;;;;;7.67;100.00;99032.03;5074798;28;20541;-50
2021/12/01 08:58:46;;;;;;;5.93;4.55;;;;;;;7.74;100.00;99035.53;5075351;28;20028;-53
2021/12/01 09:01:11;;;;;;;7.10;4.53;;;;;;;7.78;100.00;99032.13;5075598;28;20020;-55
2021/12/01 09:03:37;;;;;;;7.05;4.97;;;;;;;7.82;100.00;99026.19;5074215;28;20043;-55
2021/12/01 09:06:02;;;;;;;7.43;5.00;;;;;;;7.82;100.00;99015.09;5075337;28;20361;-53
2021/12/01 09:08:28;;;;;;;8.32;5.05;;;;;;;7.83;100.00;99043.31;5074925;28;20032;-50
2021/12/01 09:10:56;;;;;;;7.10;4.70;;;;;;;7.86;100.00;99050.19;5074418;28;20027;-53
2021/12/01 09:13:23;;;;;;;5.82;4.40;;;;;;;7.85;100.00;99048.47;5075241;28;20028;-55
2021/12/01 09:15:49;;;;;;;7.22;4.30;;;;;;;7.87;100.00;99044.22;5075097;28;20028;-54
2021/12/01 09:18:16;;;;;;;5.90;4.30;;;;;;;7.86;100.00;99048.50;5074314;28;20056;-53
2021/12/01 09:20:41;;;;;;;5.38;3.97;;;;;;;7.85;100.00;99049.34;5074391;28;20094;-55
2021/12/01 09:23:06;;;;;;;4.68;3.70;;;;;;;7.83;100.00;99048.44;5074924;28;20020;-54
2021/12/01 09:25:33;;;;;;;5.28;3.90;;;;;;;7.81;100.00;99051.84;5073792;28;20012;-54
2021/12/01 09:28:00;;;;;;;5.53;3.43;;;;;;;7.80;100.00;99042.41;5074785;28;20361;-54
2021/12/01 09:30:25;;;;;;;5.82;4.20;;;;;;;7.74;100.00;99048.34;5074884;28;20029;-54
2021/12/01 09:32:51;;;;;;;6.25;4.30;;;;;;;7.74;100.00;99033.81;5074092;28;20147;-54
2021/12/01 09:35:16;;;;;;;7.60;4.80;;;;;;;7.74;100.00;99045.78;5074652;28;20024;-54
2021/12/01 09:37:42;;;;;;;7.75;4.90;;;;;;;7.72;100.00;99057.72;5074350;28;20062;-54
2021/12/01 09:40:13;;;;;;;8.52;5.00;;;;;;;7.73;100.00;99070.56;5073731;28;20489;-54
2021/12/01 09:42:42;;;;;;;8.32;5.57;;;;;;;7.71;100.00;99073.97;5074518;28;20099;-54
2021/12/01 09:45:08;;;;;;;8.65;5.10;;;;;;;7.67;100.00;99077.31;5073789;28;20074;-55
2021/12/01 09:47:34;;;;;;;9.20;5.38;;;;;;;7.65;100.00;99073.88;5074261;28;20036;-55
2021/12/01 09:49:59;;;;;;;9.63;5.15;;;;;;;7.66;100.00;99083.28;5074108;28;20102;-54
2021/12/01 09:52:24;;;;;;;7.78;4.53;;;;;;;7.61;100.00;99090.06;5073238;28;20155;-53
2021/12/01 09:54:50;;;;;;;9.05;4.45;;;;;;;7.56;100.00;99100.25;5074514;28;20017;-54
2021/12/01 09:57:15;;;;;;;12.88;3.30;;;;;;;7.50;100.00;99084.78;5074371;28;20024;-53
2021/12/01 09:59:42;;;;;;;11.43;2.95;;;;;;;7.47;100.00;99092.44;5073382;28;20037;-55
2021/12/01 10:02:08;;;;;;;8.95;2.97;;;;;;;7.45;100.00;99089.84;5074340;28;20035;-55
2021/12/01 10:04:33;;;;;;;12.73;3.40;;;;;;;7.46;100.00;99083.88;5073799;28;20025;-55
2021/12/01 10:07:18;;;;;;;9.85;3.10;;;;;;;7.48;100.00;99078.78;5073363;28;20066;-56
2021/12/01 10:09:50;;;;;;;12.95;3.50;;;;;;;7.48;100.00;99076.22;5073891;28;20028;-55
2021/12/01 10:12:16;;;;;;;11.02;3.33;;;;;;;7.44;100.00;99075.31;5074101;28;20040;-55
2021/12/01 10:14:47;;;;;;;12.38;3.03;;;;;;;7.41;100.00;99085.50;5072930;28;20227;-55
2021/12/01 10:17:14;;;;;;;10.43;2.78;;;;;;;7.37;100.00;99074.38;5073808;28;20029;-54
2021/12/01 10:19:39;;;;;;;10.45;2.50;;;;;;;7.40;100.00;99079.53;5073326;28;20138;-55
2021/12/01 10:22:11;;;;;;;14.65;3.45;;;;;;;7.48;100.00;99074.50;5073176;28;20467;-55
2021/12/01 10:24:39;;;;;;;13.27;2.67;;;;;;;7.56;99.04;99079.75;5073610;28;20422;-56
2021/12/01 10:27:13;;;;;;;12.82;2.75;;;;;;;7.64;98.39;99077.28;5073723;28;20048;-55
2021/12/01 10:29:44;;;;;;;10.10;3.05;;;;;;;7.72;98.12;99075.66;5072692;28;20024;-54
2021/12/01 10:32:09;;;;;;;9.73;2.40;;;;;;;7.80;97.11;99078.31;5073471;28;20024;-55
2021/12/01 10:34:40;;;;;;;9.57;2.17;;;;;;;7.87;96.12;99095.50;5072791;28;20545;-54
2021/12/01 10:37:23;;;;;;;11.23;2.63;;;;;;;7.89;94.95;99079.31;5073642;28;20293;-56
2021/12/01 10:40:10;;;;;;;11.02;2.08;;;;;;;7.89;94.07;99089.56;5073599;28;20027;-54
2021/12/01 10:42:57;;;;;;;10.52;2.35;;;;;;;7.86;93.33;99079.28;5072398;28;20037;-54
2021/12/01 10:45:36;;;;;;;10.02;1.60;;;;;;;7.85;92.00;99089.50;5072995;28;20025;-55
2021/12/01 10:48:04;;;;;;;7.72;1.88;;;;;;;7.85;90.71;99077.53;5073168;28;20376;-54
2021/12/01 10:50:30;;;;;;;;;;;;;;;8.00;94.02;99063.19;5072859;28;20528;-55
2021/12/01 10:53:01;;;;;;;8.27;1.73;;;;;;;8.07;91.42;99072.69;5073184;28;20295;-54
2021/12/01 10:55:27;;;;;;;7.97;2.00;;;;;;;8.14;89.49;99060.75;5072453;28;20024;-55
2021/12/01 10:57:55;;;;;;;11.73;1.90;;;;;;;8.20;89.61;99063.41;5073352;28;20031;-54
2021/12/01 11:00:23;;;;;;;12.82;1.60;;;;;;;8.17;87.24;99068.47;5073207;28;20051;-53
2021/12/01 11:02:49;;;;;;;9.48;1.70;;;;;;;8.07;88.35;99062.41;5071610;28;20028;-55
2021/12/01 11:05:32;;;;;;;6.95;1.40;;;;;;;7.99;89.30;99058.88;5073105;28;20025;-54
2021/12/01 11:08:32;;;;;;;5.88;1.48;;;;;;;7.87;89.92;99067.31;5073029;28;20093;-55
2021/12/01 11:11:04;;;;;;;8.35;1.50;;;;;;;7.72;90.47;99070.53;5072406;28;20029;-53
2021/12/01 11:13:30;;;;;;;6.40;1.98;;;;;;;7.61;91.30;99074.69;5072922;28;20051;-54
2021/12/01 11:16:00;;;;;;;7.07;1.80;;;;;;;7.54;91.79;99082.28;5072903;28;20024;-54
2021/12/01 11:18:31;;;;;;;10.88;1.85;;;;;;;7.55;91.82;99084.03;5072155;28;20059;-55
2021/12/01 11:21:05;;;;;;;8.43;1.80;;;;;;;7.58;91.21;99083.19;5072644;28;20052;-55
2021/12/01 11:23:36;;;;;;;11.35;1.98;;;;;;;7.55;91.05;99086.59;5072520;28;20127;-56
2021/12/01 11:26:08;;;;;;;10.30;1.65;;;;;;;7.51;91.34;99087.34;5072902;28;20016;-55
2021/12/01 11:28:48;;;;;;;11.43;1.83;;;;;;;7.52;92.64;99089.09;5072659;28;20051;-55
2021/12/01 11:31:29;;;;;;;4.65;1.77;;;;;;;7.51;92.22;99079.66;5071853;28;20422;-55
2021/12/01 11:33:57;;;;;;;7.90;1.90;;;;;;;7.52;90.20;99078.84;5072810;28;20086;-53
2021/12/01 11:36:26;;;;;;;9.02;1.95;;;;;;;7.52;90.45;99078.84;5072424;28;20024;-55
2021/12/01 11:38:55;;;;;;;8.38;2.13;;;;;;;7.50;90.27;99085.66;5071952;28;20021;-54